Time;durP1;ratioP1;P1;durP2;ratioP2;P2;SDS_P1;SDS_P2;PMS_P1;PMS_P2;Temp;Humidity;BMP_temperature;BMP_pressure;BME280_temperature;BME280_humidity;BME280_pressure;Samples;Min_cycle;Max_cycle;Signal;HPM_P1;HPM_P2
2023/04/28 00:00:28;0.00;0.00;0.62;0.00;0.00;0.62;1.73;1.30;;;25.30;21.50;;;;;;2251438;61;20382;-65
2023/04/28 00:03:13;0.00;0.00;0.62;0.00;0.00;0.62;1.87;1.30;;;25.30;21.40;;;;;;2252080;61;20413;-64
2023/04/28 00:05:58;0.00;0.00;0.62;0.00;0.00;0.62;1.60;1.13;;;25.30;21.40;;;;;;2252461;61;20451;-65
2023/04/28 00:08:43;0.00;0.00;0.62;0.00;0.00;0.62;1.60;0.90;;;25.30;21.40;;;;;;2251690;61;20992;-65
2023/04/28 00:11:29;0.00;0.00;0.62;0.00;0.00;0.62;1.63;0.97;;;25.30;21.40;;;;;;2252617;61;20868;-65
2023/04/28 00:14:14;0.00;0.00;0.62;0.00;0.00;0.62;2.10;1.23;;;25.20;21.40;;;;;;2252227;61;20374;-65
2023/04/28 00:16:59;0.00;0.00;0.62;0.00;0.00;0.62;2.10;1.20;;;25.30;21.40;;;;;;2251745;61;20951;-64
2023/04/28 00:19:44;0.00;0.00;0.62;0.00;0.00;0.62;1.77;1.10;;;25.20;21.40;;;;;;2251944;61;20461;-65
2023/04/28 00:22:28;0.00;0.00;0.62;0.00;0.00;0.62;1.70;1.00;;;25.20;21.40;;;;;;2251751;61;20402;-65
2023/04/28 00:25:14;0.00;0.00;0.62;0.00;0.00;0.62;1.70;1.13;;;25.20;21.40;;;;;;2252056;61;20359;-64
2023/04/28 00:28:00;0.00;0.00;0.62;0.00;0.00;0.62;1.83;1.13;;;25.20;21.40;;;;;;2252373;61;20371;-64
2023/04/28 00:30:46;0.00;0.00;0.62;0.00;0.00;0.62;1.50;0.97;;;25.20;21.40;;;;;;2252578;61;20387;-64
2023/04/28 00:33:30;0.00;0.00;0.62;0.00;0.00;0.62;1.50;1.10;;;25.20;21.40;;;;;;2251781;61;20398;-64
2023/04/28 00:36:15;0.00;0.00;0.62;0.00;0.00;0.62;1.67;1.10;;;25.20;21.40;;;;;;2254083;61;20886;-65
2023/04/28 00:38:59;0.00;0.00;0.62;0.00;0.00;0.62;1.70;1.13;;;25.20;21.40;;;;;;2251011;61;20382;-65
2023/04/28 00:41:44;0.00;0.00;0.62;0.00;0.00;0.62;1.63;1.03;;;25.20;21.40;;;;;;2251767;61;20406;-64
2023/04/28 00:44:30;0.00;0.00;0.62;0.00;0.00;0.62;1.50;1.10;;;25.20;21.40;;;;;;2251333;61;20367;-65
2023/04/28 00:47:17;0.00;0.00;0.62;0.00;0.00;0.62;1.57;1.10;;;25.20;21.40;;;;;;2251499;61;20371;-65
2023/04/28 00:50:09;0.00;0.00;0.62;0.00;0.00;0.62;1.80;1.00;;;25.20;21.40;;;;;;2251765;61;20379;-63
2023/04/28 00:52:54;0.00;0.00;0.62;0.00;0.00;0.62;1.50;1.00;;;25.10;21.30;;;;;;2251029;61;20407;-66
2023/04/28 00:55:39;0.00;0.00;0.62;0.00;0.00;0.62;1.70;1.00;;;25.20;21.40;;;;;;2252114;61;20358;-64
2023/04/28 00:58:24;0.00;0.00;0.62;0.00;0.00;0.62;1.50;0.90;;;25.20;21.40;;;;;;2252184;61;20406;-64
2023/04/28 01:01:11;0.00;0.00;0.62;0.00;0.00;0.62;1.60;1.17;;;25.10;21.30;;;;;;2251415;61;20554;-65
2023/04/28 01:03:56;0.00;0.00;0.62;0.00;0.00;0.62;1.70;1.10;;;25.10;21.30;;;;;;2252056;61;20410;-64
2023/04/28 01:06:43;0.00;0.00;0.62;0.00;0.00;0.62;1.50;1.17;;;25.10;21.30;;;;;;2254126;61;20422;-65
2023/04/28 01:09:28;0.00;0.00;0.62;0.00;0.00;0.62;1.90;1.13;;;25.10;21.30;;;;;;2251568;61;20378;-63
2023/04/28 01:12:14;0.00;0.00;0.62;0.00;0.00;0.62;1.80;1.10;;;25.10;21.30;;;;;;2254481;61;20449;-65
2023/04/28 01:15:01;0.00;0.00;0.62;0.00;0.00;0.62;1.60;1.00;;;25.10;21.30;;;;;;2253936;61;20852;-65
2023/04/28 01:17:49;0.00;0.00;0.62;0.00;0.00;0.62;2.00;1.10;;;25.10;21.30;;;;;;2254243;61;20839;-65
2023/04/28 01:20:34;0.00;0.00;0.62;0.00;0.00;0.62;1.47;0.93;;;25.10;21.30;;;;;;2251146;61;20437;-65
2023/04/28 01:23:19;0.00;0.00;0.62;0.00;0.00;0.62;1.40;0.90;;;25.10;21.30;;;;;;2253802;61;20426;-65
2023/04/28 01:26:06;0.00;0.00;0.62;0.00;0.00;0.62;1.40;0.80;;;25.10;21.30;;;;;;2254548;61;20892;-66
2023/04/28 01:28:51;0.00;0.00;0.62;0.00;0.00;0.62;1.60;1.00;;;25.10;21.30;;;;;;2251587;61;20405;-65
2023/04/28 01:31:36;0.00;0.00;0.62;0.00;0.00;0.62;1.50;0.93;;;25.10;21.30;;;;;;2254220;61;20425;-65
2023/04/28 01:34:20;0.00;0.00;0.62;0.00;0.00;0.62;1.47;1.10;;;25.10;21.30;;;;;;2252222;61;20383;-65
2023/04/28 01:37:05;0.00;0.00;0.62;0.00;0.00;0.62;1.70;1.13;;;25.10;21.30;;;;;;2253628;61;20398;-66
2023/04/28 01:39:50;0.00;0.00;0.62;0.00;0.00;0.62;1.70;1.10;;;25.10;21.30;;;;;;2251259;61;20386;-65
2023/04/28 01:42:37;0.00;0.00;0.62;0.00;0.00;0.62;1.67;1.17;;;25.10;21.30;;;;;;2254439;61;20424;-65
2023/04/28 01:45:22;0.00;0.00;0.62;0.00;0.00;0.62;1.70;1.10;;;25.10;21.30;;;;;;2253478;61;20398;-65
2023/04/28 01:48:06;0.00;0.00;0.62;0.00;0.00;0.62;1.63;1.17;;;25.10;21.30;;;;;;2252189;61;20442;-66
2023/04/28 01:50:51;0.00;0.00;0.62;0.00;0.00;0.62;1.60;1.03;;;25.00;21.30;;;;;;2254208;61;20998;-65
2023/04/28 01:53:36;0.00;0.00;0.62;0.00;0.00;0.62;1.77;0.80;;;25.00;21.30;;;;;;2253909;61;20841;-65
2023/04/28 01:56:21;0.00;0.00;0.62;0.00;0.00;0.62;1.60;1.07;;;25.00;21.30;;;;;;2251616;61;20780;-65
2023/04/28 01:59:08;0.00;0.00;0.62;0.00;0.00;0.62;1.60;1.07;;;25.00;21.30;;;;;;2251294;61;20390;-64
2023/04/28 02:01:53;0.00;0.00;0.62;0.00;0.00;0.62;1.60;1.10;;;25.00;21.30;;;;;;2254437;61;20848;-65
2023/04/28 02:04:39;0.00;0.00;0.62;0.00;0.00;0.62;1.50;0.80;;;25.00;21.30;;;;;;2254300;61;20362;-62
2023/04/28 02:07:24;0.00;0.00;0.62;0.00;0.00;0.62;1.50;1.00;;;25.00;21.30;;;;;;2251389;61;20374;-66
2023/04/28 02:10:09;0.00;0.00;0.62;0.00;0.00;0.62;2.17;1.17;;;25.00;21.30;;;;;;2251640;61;20422;-64
2023/04/28 02:12:54;0.00;0.00;0.62;0.00;0.00;0.62;1.40;1.00;;;25.00;21.30;;;;;;2254197;61;20825;-65
2023/04/28 02:15:42;0.00;0.00;0.62;0.00;0.00;0.62;1.53;1.10;;;25.00;21.30;;;;;;2251587;61;20366;-64
2023/04/28 02:18:27;0.00;0.00;0.62;0.00;0.00;0.62;1.73;1.10;;;25.00;21.30;;;;;;2252237;61;20402;-65
2023/04/28 02:21:12;0.00;0.00;0.62;0.00;0.00;0.62;1.50;0.87;;;25.00;21.30;;;;;;2251033;61;20739;-65
2023/04/28 02:23:57;0.00;0.00;0.62;0.00;0.00;0.62;1.40;0.87;;;25.00;21.30;;;;;;2252025;61;20896;-65
2023/04/28 02:26:42;0.00;0.00;0.62;0.00;0.00;0.62;1.77;1.10;;;25.00;21.30;;;;;;2252169;61;20367;-64
2023/04/28 02:29:27;0.00;0.00;0.62;0.00;0.00;0.62;1.50;1.00;;;25.00;21.30;;;;;;2250867;61;20929;-64
2023/04/28 02:32:12;0.00;0.00;0.62;0.00;0.00;0.62;1.90;0.97;;;25.00;21.30;;;;;;2251819;61;20379;-65
2023/04/28 02:34:57;0.00;0.00;0.62;0.00;0.00;0.62;1.50;0.93;;;25.00;21.30;;;;;;2251886;61;21023;-65
2023/04/28 02:37:42;0.00;0.00;0.62;0.00;0.00;0.62;1.90;1.10;;;25.00;21.30;;;;;;2251394;61;20390;-65
2023/04/28 02:40:27;0.00;0.00;0.62;0.00;0.00;0.62;1.40;0.90;;;25.00;21.30;;;;;;2253977;61;20382;-65
2023/04/28 02:43:12;0.00;0.00;0.62;0.00;0.00;0.62;2.67;1.73;;;24.90;21.20;;;;;;2251276;61;20418;-64
2023/04/28 02:45:56;0.00;0.00;0.62;0.00;0.00;0.62;1.70;1.10;;;24.90;21.20;;;;;;2254085;61;20455;-64
2023/04/28 02:48:43;0.00;0.00;0.62;0.00;0.00;0.62;1.37;0.80;;;24.90;21.20;;;;;;2254213;61;20363;-66
2023/04/28 02:51:30;0.00;0.00;0.62;0.00;0.00;0.62;1.50;0.90;;;24.90;21.20;;;;;;2253697;61;20595;-65
2023/04/28 02:54:15;0.00;0.00;0.62;0.00;0.00;0.62;1.40;0.80;;;24.90;21.20;;;;;;2254208;61;20829;-65
2023/04/28 02:57:00;0.00;0.00;0.62;0.00;0.00;0.62;1.70;1.00;;;24.90;21.20;;;;;;2254092;61;20363;-65
2023/04/28 02:59:45;0.00;0.00;0.62;0.00;0.00;0.62;1.67;0.90;;;24.90;21.20;;;;;;2253230;61;20425;-64
2023/04/28 03:02:30;0.00;0.00;0.62;0.00;0.00;0.62;1.60;1.10;;;24.90;21.20;;;;;;2254213;61;20359;-65
2023/04/28 03:05:16;0.00;0.00;0.62;0.00;0.00;0.62;1.50;0.90;;;24.90;21.20;;;;;;2251384;61;20383;-66
2023/04/28 03:08:01;0.00;0.00;0.62;0.00;0.00;0.62;1.40;0.87;;;24.90;21.20;;;;;;2254076;61;20418;-65
2023/04/28 03:10:45;0.00;0.00;0.62;0.00;0.00;0.62;1.60;1.07;;;24.90;21.20;;;;;;2254028;61;20958;-66
2023/04/28 03:13:30;0.00;0.00;0.62;0.00;0.00;0.62;1.50;1.00;;;24.90;21.20;;;;;;2251160;61;20481;-64
2023/04/28 03:16:15;0.00;0.00;0.62;0.00;0.00;0.62;1.40;0.87;;;24.90;21.20;;;;;;2254157;61;20366;-65
2023/04/28 03:19:00;0.00;0.00;0.62;0.00;0.00;0.62;1.73;1.13;;;24.80;21.10;;;;;;2251679;61;20362;-64
2023/04/28 03:21:46;0.00;0.00;0.62;0.00;0.00;0.62;1.60;1.00;;;24.80;21.10;;;;;;2251552;61;20876;-64
2023/04/28 03:24:31;0.00;0.00;0.62;0.00;0.00;0.62;1.97;1.10;;;24.80;21.10;;;;;;2254810;61;20367;-64
2023/04/28 03:27:17;0.00;0.00;0.62;0.00;0.00;0.62;1.53;1.17;;;24.80;21.10;;;;;;2251599;61;20430;-64
2023/04/28 03:30:02;0.00;0.00;0.62;0.00;0.00;0.62;1.50;1.00;;;24.80;21.10;;;;;;2252044;61;20433;-65
2023/04/28 03:32:47;0.00;0.00;0.62;0.00;0.00;0.62;1.60;0.93;;;24.80;21.10;;;;;;2254725;61;20426;-64
2023/04/28 03:35:33;0.00;0.00;0.62;0.00;0.00;0.62;1.73;0.93;;;24.80;21.10;;;;;;2254273;61;20362;-66
2023/04/28 03:38:21;0.00;0.00;0.62;0.00;0.00;0.62;1.40;0.80;;;24.80;21.10;;;;;;2252691;61;20386;-65
2023/04/28 03:41:06;0.00;0.00;0.62;0.00;0.00;0.62;1.53;0.83;;;24.80;21.10;;;;;;2251707;61;20383;-65
2023/04/28 03:43:52;0.00;0.00;0.62;0.00;0.00;0.62;1.70;1.10;;;24.80;21.10;;;;;;2251457;61;20362;-65
2023/04/28 03:46:44;0.00;0.00;0.62;0.00;0.00;0.62;1.40;0.83;;;24.80;21.10;;;;;;2254749;61;20359;-65
2023/04/28 03:49:30;0.00;0.00;0.62;0.00;0.00;0.62;1.70;1.00;;;24.80;21.10;;;;;;2254022;61;20382;-66
2023/04/28 03:52:16;0.00;0.00;0.62;0.00;0.00;0.62;1.40;0.80;;;24.80;21.10;;;;;;2254620;61;20373;-65
2023/04/28 03:55:02;0.00;0.00;0.62;0.00;0.00;0.62;1.30;0.80;;;24.80;21.10;;;;;;2252361;61;20363;-64
2023/04/28 03:57:47;0.00;0.00;0.62;0.00;0.00;0.62;1.50;0.93;;;24.80;21.10;;;;;;2254102;61;20363;-65
2023/04/28 04:00:32;0.00;0.00;0.62;0.00;0.00;0.62;1.50;0.90;;;24.80;21.10;;;;;;2251872;61;20386;-65
2023/04/28 04:03:16;0.00;0.00;0.62;0.00;0.00;0.62;1.60;1.20;;;24.70;21.00;;;;;;2254879;61;20478;-65
2023/04/28 04:06:02;0.00;0.00;0.62;0.00;0.00;0.62;1.50;1.00;;;24.80;21.10;;;;;;2254210;61;20354;-65
2023/04/28 04:08:48;0.00;0.00;0.62;0.00;0.00;0.62;1.60;1.00;;;24.80;21.10;;;;;;2252329;61;20382;-65
2023/04/28 04:11:35;0.00;0.00;0.62;0.00;0.00;0.62;1.80;1.10;;;24.80;21.10;;;;;;2254713;61;20363;-65
2023/04/28 04:14:21;0.00;0.00;0.62;0.00;0.00;0.62;1.50;0.90;;;24.80;21.10;;;;;;2252093;61;20920;-66
2023/04/28 04:17:06;0.00;0.00;0.62;0.00;0.00;0.62;1.30;0.70;;;24.70;21.00;;;;;;2254889;61;20366;-65
2023/04/28 04:19:51;0.00;0.00;0.62;0.00;0.00;0.62;1.60;1.07;;;24.70;21.00;;;;;;2253999;61;20505;-65
2023/04/28 04:22:36;0.00;0.00;0.62;0.00;0.00;0.62;2.10;1.40;;;24.70;21.00;;;;;;2252246;61;20354;-65
2023/04/28 04:25:21;0.00;0.00;0.62;0.00;0.00;0.62;1.63;0.90;;;24.70;21.00;;;;;;2252324;61;20421;-65
2023/04/28 04:28:08;0.00;0.00;0.62;0.00;0.00;0.62;1.43;0.90;;;24.70;21.00;;;;;;2253964;61;20834;-65
2023/04/28 04:30:53;0.00;0.00;0.62;0.00;0.00;0.62;1.50;0.90;;;24.70;21.00;;;;;;2251981;61;20974;-65
2023/04/28 04:33:37;0.00;0.00;0.62;0.00;0.00;0.62;1.70;0.97;;;24.70;21.00;;;;;;2252140;61;21027;-65
2023/04/28 04:36:23;0.00;0.00;0.62;0.00;0.00;0.62;1.83;1.00;;;24.70;21.00;;;;;;2254285;61;20875;-65
2023/04/28 04:39:08;0.00;0.00;0.62;0.00;0.00;0.62;1.50;0.90;;;24.70;21.00;;;;;;2254260;61;20362;-64
2023/04/28 04:41:53;0.00;0.00;0.62;0.00;0.00;0.62;1.70;1.00;;;24.70;21.00;;;;;;2254259;61;20366;-65
2023/04/28 04:44:52;0.00;0.00;0.62;0.00;0.00;0.62;1.50;0.93;;;24.70;21.00;;;;;;2254460;61;20505;-64
2023/04/28 04:47:48;0.00;0.00;0.62;0.00;0.00;0.62;1.60;1.17;;;24.70;21.00;;;;;;2254696;61;20363;-64
2023/04/28 04:50:33;0.00;0.00;0.62;0.00;0.00;0.62;1.30;0.70;;;24.70;21.00;;;;;;2251457;61;20426;-63
2023/04/28 04:53:17;0.00;0.00;0.62;0.00;0.00;0.62;1.80;0.87;;;24.70;21.00;;;;;;2254663;61;20394;-63
2023/04/28 04:56:03;0.00;0.00;0.62;0.00;0.00;0.62;1.80;0.90;;;24.70;21.00;;;;;;2254320;61;20414;-64
2023/04/28 04:58:51;0.00;0.00;0.62;0.00;0.00;0.62;1.70;1.10;;;24.70;21.00;;;;;;2254519;61;20775;-64
2023/04/28 05:01:57;0.00;0.00;0.62;0.00;0.00;0.62;1.50;1.10;;;24.70;21.00;;;;;;2252281;61;20373;-64
2023/04/28 05:04:42;0.00;0.00;0.62;0.00;0.00;0.62;1.77;1.00;;;24.70;21.00;;;;;;2253945;61;20379;-63
2023/04/28 05:07:27;0.00;0.00;0.62;0.00;0.00;0.62;1.77;1.10;;;24.60;21.00;;;;;;2254635;61;20365;-64
2023/04/28 05:10:11;0.00;0.00;0.62;0.00;0.00;0.62;1.60;1.20;;;24.60;21.00;;;;;;2254396;61;20386;-64
2023/04/28 05:12:57;0.00;0.00;0.62;0.00;0.00;0.62;1.60;1.00;;;24.60;21.00;;;;;;2251016;61;20434;-64
2023/04/28 05:15:42;0.00;0.00;0.62;0.00;0.00;0.62;1.30;0.80;;;24.60;21.00;;;;;;2254555;61;20822;-64
2023/04/28 05:18:41;0.00;0.00;0.62;0.00;0.00;0.62;1.90;0.97;;;24.60;21.00;;;;;;2254260;61;20359;-63
2023/04/28 05:21:27;0.00;0.00;0.62;0.00;0.00;0.62;1.30;0.80;;;24.60;21.00;;;;;;2251766;61;20417;-63
2023/04/28 05:24:12;0.00;0.00;0.62;0.00;0.00;0.62;1.40;0.80;;;24.60;21.00;;;;;;2251549;61;20362;-64
2023/04/28 05:26:58;0.00;0.00;0.62;0.00;0.00;0.62;1.50;0.87;;;24.60;21.00;;;;;;2251525;61;20418;-64
2023/04/28 05:29:43;0.00;0.00;0.62;0.00;0.00;0.62;1.80;0.97;;;24.60;21.00;;;;;;2254088;61;20390;-64
2023/04/28 05:32:29;0.00;0.00;0.62;0.00;0.00;0.62;1.60;1.03;;;24.60;21.00;;;;;;2254551;61;20461;-63
2023/04/28 05:35:15;0.00;0.00;0.62;0.00;0.00;0.62;1.67;1.00;;;24.60;21.00;;;;;;2251603;61;20398;-63
2023/04/28 05:38:00;0.00;0.00;0.62;0.00;0.00;0.62;1.43;1.00;;;24.60;21.00;;;;;;2254581;61;20942;-63
2023/04/28 05:40:45;0.00;0.00;0.62;0.00;0.00;0.62;1.53;1.03;;;24.60;21.00;;;;;;2253684;61;20860;-64
2023/04/28 05:43:31;0.00;0.00;0.62;0.00;0.00;0.62;1.40;0.93;;;24.60;21.00;;;;;;2254234;61;20367;-64
2023/04/28 05:46:16;0.00;0.00;0.62;0.00;0.00;0.62;1.87;1.30;;;24.60;21.00;;;;;;2254321;61;20402;-63
2023/04/28 05:49:02;0.00;0.00;0.62;0.00;0.00;0.62;1.70;1.00;;;24.60;21.00;;;;;;2253461;61;20538;-63
2023/04/28 05:51:52;0.00;0.00;0.62;0.00;0.00;0.62;1.80;1.30;;;24.60;21.00;;;;;;2254689;61;20761;-63
2023/04/28 05:54:37;0.00;0.00;0.62;0.00;0.00;0.62;1.40;0.93;;;24.60;21.00;;;;;;2254547;61;20498;-63
2023/04/28 05:57:21;0.00;0.00;0.62;0.00;0.00;0.62;1.80;1.00;;;24.60;21.00;;;;;;2253880;61;20378;-64
2023/04/28 06:00:08;0.00;0.00;0.62;0.00;0.00;0.62;1.77;1.00;;;24.60;21.00;;;;;;2251601;61;20386;-64
2023/04/28 06:02:57;0.00;0.00;0.62;0.00;0.00;0.62;1.50;0.90;;;24.60;21.00;;;;;;2251675;61;20390;-64
2023/04/28 06:05:42;0.00;0.00;0.62;0.00;0.00;0.62;1.60;0.90;;;24.60;21.00;;;;;;2251925;61;20444;-64
2023/04/28 06:08:29;0.00;0.00;0.62;0.00;0.00;0.62;1.87;1.00;;;24.60;21.00;;;;;;2254464;61;20371;-63
2023/04/28 06:11:14;0.00;0.00;0.62;0.00;0.00;0.62;1.30;0.90;;;24.60;21.00;;;;;;2251271;61;20434;-63
2023/04/28 06:13:59;0.00;0.00;0.62;0.00;0.00;0.62;1.83;1.30;;;24.60;21.00;;;;;;2254457;61;20471;-64
2023/04/28 06:16:43;0.00;0.00;0.62;0.00;0.00;0.62;2.33;1.63;;;24.60;21.00;;;;;;2254487;61;20367;-64
2023/04/28 06:19:42;0.00;0.00;0.62;0.00;0.00;0.62;2.17;1.33;;;24.60;21.00;;;;;;2281569;40;20464;-64
2023/04/28 06:22:26;0.00;0.00;0.62;0.00;0.00;0.62;1.60;1.10;;;24.50;21.00;;;;;;2257327;61;20382;-64
2023/04/28 06:25:13;0.00;0.00;0.62;0.00;0.00;0.62;1.63;1.20;;;24.50;21.00;;;;;;2255255;61;20354;-63
2023/04/28 06:28:03;0.00;0.00;0.62;0.00;0.00;0.62;2.23;1.03;;;24.50;21.00;;;;;;2255613;61;20933;-64
2023/04/28 06:30:47;0.00;0.00;0.62;0.00;0.00;0.62;1.90;1.40;;;24.50;21.00;;;;;;2255317;61;20965;-64
2023/04/28 06:33:32;0.00;0.00;0.62;0.00;0.00;0.62;1.90;1.30;;;24.50;21.00;;;;;;2255390;61;20930;-63
2023/04/28 06:36:18;0.00;0.00;0.62;0.00;0.00;0.62;1.60;1.10;;;24.50;21.00;;;;;;2256248;61;20432;-64
2023/04/28 06:41:56;0.00;0.00;0.62;0.00;0.00;0.62;1.60;1.10;;;24.50;21.00;;;;;;2257137;61;20424;-63
2023/04/28 06:44:44;0.00;0.00;0.62;0.00;0.00;0.62;2.00;1.40;;;24.50;21.00;;;;;;2255443;61;20922;-63
2023/04/28 06:47:29;0.00;0.00;0.62;0.00;0.00;0.62;2.13;1.43;;;24.50;21.00;;;;;;2255738;61;20808;-64
2023/04/28 06:50:13;0.00;0.00;0.62;0.00;0.00;0.62;2.13;1.73;;;24.50;21.00;;;;;;2253897;61;20800;-63
2023/04/28 06:52:58;0.00;0.00;0.62;0.00;0.00;0.62;2.27;1.50;;;24.50;21.00;;;;;;2251893;61;20383;-63
2023/04/28 06:55:43;0.00;0.00;0.62;0.00;0.00;0.62;2.20;1.43;;;24.50;21.00;;;;;;2252065;61;20916;-64
2023/04/28 06:58:29;0.00;0.00;0.62;0.00;0.00;0.62;2.27;1.40;;;24.50;21.00;;;;;;2252614;61;20367;-64
2023/04/28 07:01:14;0.00;0.00;0.62;0.00;0.00;0.62;2.20;1.60;;;24.50;21.10;;;;;;2252238;61;20402;-63
2023/04/28 07:03:59;0.00;0.00;0.62;0.00;0.00;0.62;2.10;1.47;;;24.50;21.00;;;;;;2254256;61;20459;-64
2023/04/28 07:06:44;0.00;0.00;0.62;0.00;0.00;0.62;2.20;1.70;;;24.50;21.10;;;;;;2252611;61;20366;-64
2023/04/28 07:09:28;0.00;0.00;0.62;0.00;0.00;0.62;2.17;1.80;;;24.50;21.10;;;;;;2251896;61;20859;-64
2023/04/28 07:12:13;0.00;0.00;0.62;0.00;0.00;0.62;2.33;1.60;;;24.50;21.10;;;;;;2252448;61;20377;-64
2023/04/28 07:14:59;0.00;0.00;0.62;0.00;0.00;0.62;2.57;1.90;;;24.50;21.10;;;;;;2252604;61;20362;-68
2023/04/28 07:17:44;0.00;0.00;0.62;0.00;0.00;0.62;2.93;1.80;;;24.50;21.10;;;;;;2252113;61;20864;-64
2023/04/28 07:20:29;0.00;0.00;0.62;0.00;0.00;0.62;2.60;1.80;;;24.50;21.10;;;;;;2252155;61;20382;-64
2023/04/28 07:23:14;0.00;0.00;0.62;0.00;0.00;0.62;2.43;1.77;;;24.50;21.10;;;;;;2252796;61;20358;-64
2023/04/28 07:25:59;0.00;0.00;0.62;0.00;0.00;0.62;2.70;2.07;;;24.50;21.20;;;;;;2251889;61;20403;-64
2023/04/28 07:28:44;0.00;0.00;0.62;0.00;0.00;0.62;2.53;2.07;;;24.50;21.10;;;;;;2252751;61;20367;-64
2023/04/28 07:31:30;0.00;0.00;0.62;0.00;0.00;0.62;3.13;2.17;;;24.50;21.20;;;;;;2252187;61;20953;-64
2023/04/28 07:34:15;0.00;0.00;0.62;0.00;0.00;0.62;2.73;2.03;;;24.50;21.30;;;;;;2252218;61;20395;-64
2023/04/28 07:36:59;0.00;0.00;0.62;0.00;0.00;0.62;2.10;1.90;;;24.50;21.20;;;;;;2252552;61;20413;-64
2023/04/28 07:39:44;0.00;0.00;0.62;0.00;0.00;0.62;2.63;2.20;;;24.50;21.20;;;;;;2251392;61;20814;-64
2023/04/28 07:42:29;0.00;0.00;0.62;0.00;0.00;0.62;2.80;2.33;;;24.50;21.20;;;;;;2252719;61;20968;-64
2023/04/28 07:45:15;0.00;0.00;0.62;0.00;0.00;0.62;2.80;2.33;;;24.50;21.20;;;;;;2252131;61;20365;-64
2023/04/28 07:48:01;0.00;0.00;0.62;0.00;0.00;0.62;2.43;1.90;;;24.50;21.20;;;;;;2251740;61;20390;-64
2023/04/28 07:50:45;0.00;0.00;0.62;0.00;0.00;0.62;3.23;2.27;;;24.50;21.20;;;;;;2252390;61;20475;-63
2023/04/28 07:53:30;0.00;0.00;0.62;0.00;0.00;0.62;2.63;1.83;;;24.50;21.20;;;;;;2252291;61;20487;-64
2023/04/28 07:56:15;0.00;0.00;0.62;0.00;0.00;0.62;2.87;2.10;;;24.50;21.20;;;;;;2252201;61;20359;-64
2023/04/28 07:59:00;0.00;0.00;0.62;0.00;0.00;0.62;2.97;2.20;;;24.50;21.20;;;;;;2252225;61;20417;-64
2023/04/28 08:01:45;0.00;0.00;0.62;0.00;0.00;0.62;3.50;2.27;;;24.50;21.20;;;;;;2252086;61;20522;-64
2023/04/28 08:04:32;0.00;0.00;0.62;0.00;0.00;0.62;2.70;2.30;;;24.50;21.20;;;;;;2252448;61;20394;-64
2023/04/28 08:07:17;0.00;0.00;0.62;0.00;0.00;0.62;2.73;2.10;;;24.50;21.20;;;;;;2252613;61;20374;-64
2023/04/28 08:10:02;0.00;0.00;0.62;0.00;0.00;0.62;2.73;2.40;;;24.50;21.20;;;;;;2251511;61;20895;-64
2023/04/28 08:12:47;0.00;0.00;0.62;0.00;0.00;0.62;3.10;2.07;;;24.50;21.20;;;;;;2252791;61;20387;-64
2023/04/28 08:15:32;0.00;0.00;0.62;0.00;0.00;0.62;2.80;2.50;;;24.50;21.20;;;;;;2252557;61;20398;-64
2023/04/28 08:18:18;0.00;0.00;0.62;0.00;0.00;0.62;2.70;2.10;;;24.50;21.20;;;;;;2252267;61;20374;-65
2023/04/28 08:21:04;0.00;0.00;0.62;0.00;0.00;0.62;2.30;1.90;;;24.50;21.20;;;;;;2252023;61;20457;-64
2023/04/28 08:23:49;0.00;0.00;0.62;0.00;0.00;0.62;2.80;2.50;;;24.50;21.20;;;;;;2251861;61;20398;-64
2023/04/28 08:26:33;0.00;0.00;0.62;0.00;0.00;0.62;2.90;2.13;;;24.50;21.20;;;;;;2252548;61;20678;-64
2023/04/28 08:29:18;0.00;0.00;0.62;0.00;0.00;0.62;2.57;2.20;;;24.60;21.30;;;;;;2252146;61;20995;-63
2023/04/28 08:32:05;0.00;0.00;0.62;0.00;0.00;0.62;2.57;2.07;;;24.50;21.20;;;;;;2251933;61;20362;-64
2023/04/28 08:34:50;0.00;0.00;0.62;0.00;0.00;0.62;2.97;2.13;;;24.60;21.30;;;;;;2252209;61;20418;-63
2023/04/28 08:37:36;0.00;0.00;0.62;0.00;0.00;0.62;2.67;2.30;;;24.50;21.20;;;;;;2252254;61;20780;-64
2023/04/28 08:40:23;0.00;0.00;0.62;0.00;0.00;0.62;2.53;2.20;;;24.60;21.30;;;;;;2251323;61;20430;-64
2023/04/28 08:43:09;0.00;0.00;0.62;0.00;0.00;0.62;3.03;2.30;;;24.60;21.30;;;;;;2252335;61;20772;-64
2023/04/28 08:45:54;0.00;0.00;0.62;0.00;0.00;0.62;2.80;2.40;;;24.60;21.30;;;;;;2251941;61;20362;-64
2023/04/28 08:48:42;0.00;0.00;0.62;0.00;0.00;0.62;2.50;2.03;;;24.50;21.20;;;;;;2252133;61;20394;-64
2023/04/28 08:51:35;0.00;0.00;0.62;0.00;0.00;0.62;2.63;2.10;;;24.60;21.30;;;;;;2252307;61;20379;-64
2023/04/28 08:54:23;0.00;0.00;0.62;0.00;0.00;0.62;2.43;2.00;;;24.60;21.30;;;;;;2251534;61;20532;-64
2023/04/28 08:57:09;0.00;0.00;0.62;0.00;0.00;0.62;2.33;1.63;;;24.60;21.30;;;;;;2252203;61;20910;-64
2023/04/28 08:59:54;0.00;0.00;0.62;0.00;0.00;0.62;2.40;2.00;;;24.60;21.30;;;;;;2251850;61;20415;-62
2023/04/28 09:02:42;0.00;0.00;0.62;0.00;0.00;0.62;2.77;2.20;;;24.60;21.30;;;;;;2251692;61;20425;-64
2023/04/28 09:05:27;0.00;0.00;0.62;0.00;0.00;0.62;2.23;1.93;;;24.60;21.30;;;;;;2252199;61;20371;-64
2023/04/28 09:08:12;0.00;0.00;0.62;0.00;0.00;0.62;2.60;1.93;;;24.60;21.30;;;;;;2251874;61;20366;-64
2023/04/28 09:11:09;0.00;0.00;0.62;0.00;0.00;0.62;2.60;1.83;;;24.60;21.30;;;;;;2530865;45;20384;-65
2023/04/28 09:14:11;0.00;0.00;0.62;0.00;0.00;0.62;3.03;2.27;;;24.60;21.30;;;;;;2248347;61;20399;-64
2023/04/28 09:16:56;0.00;0.00;0.62;0.00;0.00;0.62;3.13;2.20;;;24.60;21.30;;;;;;2247467;61;20366;-64
2023/04/28 09:19:44;0.00;0.00;0.62;0.00;0.00;0.62;2.50;1.80;;;24.60;21.30;;;;;;2247756;61;20387;-64
2023/04/28 09:22:28;0.00;0.00;0.62;0.00;0.00;0.62;2.20;1.80;;;24.60;21.30;;;;;;2247366;61;20944;-63
2023/04/28 09:25:15;0.00;0.00;0.62;0.00;0.00;0.62;3.97;2.70;;;24.60;21.30;;;;;;2248051;61;20904;-64
2023/04/28 09:28:19;0.00;0.00;0.62;0.00;0.00;0.62;2.93;2.03;;;24.60;21.30;;;;;;2248239;61;20368;-63
2023/04/28 09:31:04;0.00;0.00;0.62;0.00;0.00;0.62;2.40;1.80;;;24.60;21.30;;;;;;2247357;61;20392;-64
2023/04/28 09:33:56;0.00;0.00;0.62;0.00;0.00;0.62;2.43;1.83;;;24.60;21.30;;;;;;2247933;61;20480;-63
2023/04/28 09:36:41;0.00;0.00;0.62;0.00;0.00;0.62;2.53;1.97;;;24.60;21.30;;;;;;2247795;61;20371;-67
2023/04/28 09:39:30;0.00;0.00;0.62;0.00;0.00;0.62;2.60;2.00;;;24.60;21.30;;;;;;2247404;61;20387;-64
2023/04/28 09:42:37;0.00;0.00;0.62;0.00;0.00;0.62;2.40;1.63;;;24.60;21.30;;;;;;2251782;61;20445;-64
2023/04/28 09:45:24;0.00;0.00;0.62;0.00;0.00;0.62;2.67;2.33;;;24.60;21.30;;;;;;2251619;61;20371;-64
2023/04/28 09:48:10;0.00;0.00;0.62;0.00;0.00;0.62;2.77;2.17;;;24.60;21.30;;;;;;2252060;61;20399;-66
2023/04/28 09:53:38;0.00;0.00;0.62;0.00;0.00;0.62;2.40;2.10;;;24.70;21.40;;;;;;2252657;61;20375;-64
2023/04/28 09:56:24;0.00;0.00;0.62;0.00;0.00;0.62;2.60;2.30;;;24.60;21.30;;;;;;2252268;61;20370;-63
2023/04/28 09:59:09;0.00;0.00;0.62;0.00;0.00;0.62;2.10;1.80;;;24.60;21.30;;;;;;2252064;61;20406;-63
2023/04/28 10:01:56;0.00;0.00;0.62;0.00;0.00;0.62;2.40;2.20;;;24.70;21.40;;;;;;2251735;61;20414;-63
2023/04/28 10:04:43;0.00;0.00;0.62;0.00;0.00;0.62;2.83;1.80;;;24.60;21.30;;;;;;2252070;61;20363;-63
2023/04/28 10:07:29;0.00;0.00;0.62;0.00;0.00;0.62;2.73;2.43;;;24.70;21.40;;;;;;2251695;61;20401;-63
2023/04/28 10:10:15;0.00;0.00;0.62;0.00;0.00;0.62;2.63;2.10;;;24.70;21.40;;;;;;2251663;61;20898;-63
2023/04/28 10:13:01;0.00;0.00;0.62;0.00;0.00;0.62;2.50;1.80;;;24.70;21.40;;;;;;2252146;61;20417;-63
2023/04/28 10:15:47;0.00;0.00;0.62;0.00;0.00;0.62;2.20;1.80;;;24.70;21.40;;;;;;2251566;61;20370;-64
2023/04/28 10:18:35;0.00;0.00;0.62;0.00;0.00;0.62;2.73;2.00;;;24.70;21.40;;;;;;2252091;61;20842;-63
2023/04/28 10:21:22;0.00;0.00;0.62;0.00;0.00;0.62;2.40;1.77;;;24.70;21.40;;;;;;2252184;61;20459;-65
2023/04/28 10:24:17;0.00;0.00;0.62;0.00;0.00;0.62;2.50;1.70;;;24.70;21.40;;;;;;2251839;61;20879;-66
2023/04/28 10:27:05;0.00;0.00;0.62;0.00;0.00;0.62;2.37;1.83;;;24.70;21.40;;;;;;2252187;61;20366;-64
2023/04/28 10:29:50;0.00;0.00;0.62;0.00;0.00;0.62;2.70;2.07;;;24.70;21.40;;;;;;2251838;61;20845;-64
2023/04/28 10:32:35;0.00;0.00;0.62;0.00;0.00;0.62;2.80;2.00;;;24.70;21.40;;;;;;2252633;61;20370;-63
2023/04/28 10:35:43;0.00;0.00;0.62;0.00;0.00;0.62;2.90;2.20;;;24.70;21.40;;;;;;2252878;61;20409;-63
2023/04/28 10:38:28;0.00;0.00;0.62;0.00;0.00;0.62;2.57;1.80;;;24.70;21.40;;;;;;2251908;61;20375;-63
2023/04/28 10:41:31;0.00;0.00;0.62;0.00;0.00;0.62;1.77;1.40;;;24.70;21.40;;;;;;2252621;61;20381;-63
2023/04/28 10:44:41;0.00;0.00;0.62;0.00;0.00;0.62;2.37;2.00;;;24.70;21.40;;;;;;2252345;61;20359;-63
2023/04/28 10:47:26;0.00;0.00;0.62;0.00;0.00;0.62;2.30;1.90;;;24.70;21.40;;;;;;2252513;61;20358;-66
2023/04/28 10:50:11;0.00;0.00;0.62;0.00;0.00;0.62;2.17;1.83;;;24.70;21.40;;;;;;2252296;61;20406;-64
2023/04/28 10:52:59;0.00;0.00;0.62;0.00;0.00;0.62;2.33;2.07;;;24.70;21.40;;;;;;2251732;61;20373;-64
2023/04/28 10:55:43;0.00;0.00;0.62;0.00;0.00;0.62;2.40;1.63;;;24.70;21.40;;;;;;2252931;61;20398;-67
2023/04/28 10:58:31;0.00;0.00;0.62;0.00;0.00;0.62;2.17;1.73;;;24.70;21.40;;;;;;2255300;61;20366;-64
2023/04/28 11:01:28;0.00;0.00;0.62;0.00;0.00;0.62;2.17;1.70;;;24.70;21.40;;;;;;2254763;61;20366;-63